sensor_id;sensor_type;location;lat;lon;timestamp;P1;durP1;ratioP1;P2;durP2;ratioP2
9763;SDS011;4921;43.214;27.936;2023-07-29T00:00:46;2.07;;;1.87;;
9763;SDS011;4921;43.214;27.936;2023-07-29T00:03:13;2.03;;;1.73;;
9763;SDS011;4921;43.214;27.936;2023-07-29T00:05:40;4.30;;;1.60;;
9763;SDS011;4921;43.214;27.936;2023-07-29T00:08:07;2.00;;;1.70;;
9763;SDS011;4921;43.214;27.936;2023-07-29T00:10:35;3.23;;;2.00;;
9763;SDS011;4921;43.214;27.936;2023-07-29T00:13:05;2.93;;;2.00;;
9763;SDS011;4921;43.214;27.936;2023-07-29T00:15:33;3.30;;;1.93;;
9763;SDS011;4921;43.214;27.936;2023-07-29T00:18:00;6.53;;;1.63;;
9763;SDS011;4921;43.214;27.936;2023-07-29T00:20:27;4.13;;;2.00;;
9763;SDS011;4921;43.214;27.936;2023-07-29T00:22:54;2.13;;;1.50;;
9763;SDS011;4921;43.214;27.936;2023-07-29T00:25:23;2.53;;;1.80;;
9763;SDS011;4921;43.214;27.936;2023-07-29T00:27:50;2.20;;;1.70;;
9763;SDS011;4921;43.214;27.936;2023-07-29T00:30:18;4.20;;;2.20;;
9763;SDS011;4921;43.214;27.936;2023-07-29T00:32:45;2.80;;;1.97;;
9763;SDS011;4921;43.214;27.936;2023-07-29T00:35:12;2.63;;;2.00;;
9763;SDS011;4921;43.214;27.936;2023-07-29T00:37:39;1.97;;;1.83;;
9763;SDS011;4921;43.214;27.936;2023-07-29T00:40:09;1.80;;;1.70;;
9763;SDS011;4921;43.214;27.936;2023-07-29T00:42:41;2.07;;;1.90;;
9763;SDS011;4921;43.214;27.936;2023-07-29T00:45:08;1.87;;;1.77;;
9763;SDS011;4921;43.214;27.936;2023-07-29T00:47:37;2.17;;;2.00;;
9763;SDS011;4921;43.214;27.936;2023-07-29T00:50:05;1.87;;;1.77;;
9763;SDS011;4921;43.214;27.936;2023-07-29T00:52:33;2.50;;;2.17;;
9763;SDS011;4921;43.214;27.936;2023-07-29T00:55:00;2.53;;;1.80;;
9763;SDS011;4921;43.214;27.936;2023-07-29T00:57:27;1.70;;;1.60;;
9763;SDS011;4921;43.214;27.936;2023-07-29T00:59:56;1.70;;;1.60;;
9763;SDS011;4921;43.214;27.936;2023-07-29T01:02:23;1.80;;;1.67;;
9763;SDS011;4921;43.214;27.936;2023-07-29T01:04:53;1.90;;;1.70;;
9763;SDS011;4921;43.214;27.936;2023-07-29T01:07:21;5.90;;;1.90;;
9763;SDS011;4921;43.214;27.936;2023-07-29T01:09:57;3.00;;;2.03;;
9763;SDS011;4921;43.214;27.936;2023-07-29T01:12:31;4.70;;;1.90;;
9763;SDS011;4921;43.214;27.936;2023-07-29T01:15:05;2.00;;;1.90;;
9763;SDS011;4921;43.214;27.936;2023-07-29T01:17:39;6.07;;;2.10;;
9763;SDS011;4921;43.214;27.936;2023-07-29T01:20:11;2.10;;;2.00;;
9763;SDS011;4921;43.214;27.936;2023-07-29T01:22:41;5.87;;;2.00;;
9763;SDS011;4921;43.214;27.936;2023-07-29T01:25:10;4.80;;;2.20;;
9763;SDS011;4921;43.214;27.936;2023-07-29T01:27:37;2.33;;;1.90;;
9763;SDS011;4921;43.214;27.936;2023-07-29T01:30:04;4.53;;;1.80;;
9763;SDS011;4921;43.214;27.936;2023-07-29T01:32:36;4.10;;;2.20;;
9763;SDS011;4921;43.214;27.936;2023-07-29T01:35:09;3.73;;;1.60;;
9763;SDS011;4921;43.214;27.936;2023-07-29T01:37:46;5.13;;;2.23;;
9763;SDS011;4921;43.214;27.936;2023-07-29T01:40:17;6.57;;;2.40;;
9763;SDS011;4921;43.214;27.936;2023-07-29T01:42:45;3.97;;;2.17;;
9763;SDS011;4921;43.214;27.936;2023-07-29T01:45:12;6.87;;;2.10;;
9763;SDS011;4921;43.214;27.936;2023-07-29T01:47:39;1.70;;;1.57;;
9763;SDS011;4921;43.214;27.936;2023-07-29T01:50:07;2.50;;;2.20;;
9763;SDS011;4921;43.214;27.936;2023-07-29T01:52:34;5.13;;;2.53;;
9763;SDS011;4921;43.214;27.936;2023-07-29T01:55:02;4.57;;;2.23;;
9763;SDS011;4921;43.214;27.936;2023-07-29T01:57:30;3.73;;;2.53;;
9763;SDS011;4921;43.214;27.936;2023-07-29T01:59:57;6.30;;;2.40;;
9763;SDS011;4921;43.214;27.936;2023-07-29T02:02:25;4.27;;;2.60;;
9763;SDS011;4921;43.214;27.936;2023-07-29T02:04:52;5.93;;;2.30;;
9763;SDS011;4921;43.214;27.936;2023-07-29T02:07:21;4.03;;;2.80;;
9763;SDS011;4921;43.214;27.936;2023-07-29T02:09:48;2.80;;;2.27;;
9763;SDS011;4921;43.214;27.936;2023-07-29T02:12:15;4.53;;;2.70;;
9763;SDS011;4921;43.214;27.936;2023-07-29T02:14:43;3.20;;;2.47;;
9763;SDS011;4921;43.214;27.936;2023-07-29T02:17:11;5.97;;;2.30;;
9763;SDS011;4921;43.214;27.936;2023-07-29T02:19:37;4.23;;;2.20;;
9763;SDS011;4921;43.214;27.936;2023-07-29T02:22:05;8.87;;;2.67;;
9763;SDS011;4921;43.214;27.936;2023-07-29T02:24:32;4.77;;;3.03;;
9763;SDS011;4921;43.214;27.936;2023-07-29T02:26:59;5.37;;;2.90;;
9763;SDS011;4921;43.214;27.936;2023-07-29T02:29:26;4.77;;;2.60;;
9763;SDS011;4921;43.214;27.936;2023-07-29T02:31:54;8.10;;;3.40;;
9763;SDS011;4921;43.214;27.936;2023-07-29T02:34:21;7.47;;;3.80;;
9763;SDS011;4921;43.214;27.936;2023-07-29T02:36:48;7.83;;;3.43;;
9763;SDS011;4921;43.214;27.936;2023-07-29T02:39:15;5.80;;;3.07;;
9763;SDS011;4921;43.214;27.936;2023-07-29T02:41:42;6.07;;;3.47;;
9763;SDS011;4921;43.214;27.936;2023-07-29T02:44:09;7.00;;;3.70;;
9763;SDS011;4921;43.214;27.936;2023-07-29T02:46:36;5.87;;;2.77;;
9763;SDS011;4921;43.214;27.936;2023-07-29T02:49:05;9.13;;;3.40;;
9763;SDS011;4921;43.214;27.936;2023-07-29T02:51:32;8.30;;;3.40;;
9763;SDS011;4921;43.214;27.936;2023-07-29T02:53:59;4.90;;;3.47;;
9763;SDS011;4921;43.214;27.936;2023-07-29T02:56:26;7.53;;;3.83;;
9763;SDS011;4921;43.214;27.936;2023-07-29T02:58:53;6.93;;;3.60;;
9763;SDS011;4921;43.214;27.936;2023-07-29T03:01:20;6.20;;;3.23;;
9763;SDS011;4921;43.214;27.936;2023-07-29T03:03:47;10.30;;;3.67;;
9763;SDS011;4921;43.214;27.936;2023-07-29T03:06:15;8.57;;;3.37;;
9763;SDS011;4921;43.214;27.936;2023-07-29T03:08:42;9.60;;;3.47;;
9763;SDS011;4921;43.214;27.936;2023-07-29T03:11:10;14.07;;;3.87;;
9763;SDS011;4921;43.214;27.936;2023-07-29T03:13:39;7.87;;;4.43;;
9763;SDS011;4921;43.214;27.936;2023-07-29T03:16:06;5.03;;;3.73;;
9763;SDS011;4921;43.214;27.936;2023-07-29T03:18:34;5.00;;;3.90;;
9763;SDS011;4921;43.214;27.936;2023-07-29T03:21:01;6.37;;;3.87;;
9763;SDS011;4921;43.214;27.936;2023-07-29T03:23:30;8.30;;;3.97;;
9763;SDS011;4921;43.214;27.936;2023-07-29T03:25:59;5.97;;;3.87;;
9763;SDS011;4921;43.214;27.936;2023-07-29T03:28:30;6.17;;;3.10;;
9763;SDS011;4921;43.214;27.936;2023-07-29T03:30:58;5.03;;;3.70;;
9763;SDS011;4921;43.214;27.936;2023-07-29T03:33:25;8.40;;;4.17;;
9763;SDS011;4921;43.214;27.936;2023-07-29T03:35:53;10.23;;;3.50;;
9763;SDS011;4921;43.214;27.936;2023-07-29T03:38:19;9.10;;;3.83;;
9763;SDS011;4921;43.214;27.936;2023-07-29T03:40:48;7.93;;;3.80;;
9763;SDS011;4921;43.214;27.936;2023-07-29T03:43:15;9.67;;;3.50;;
9763;SDS011;4921;43.214;27.936;2023-07-29T03:45:42;11.13;;;4.00;;
9763;SDS011;4921;43.214;27.936;2023-07-29T03:48:09;9.83;;;3.67;;
9763;SDS011;4921;43.214;27.936;2023-07-29T03:50:36;9.07;;;3.30;;
9763;SDS011;4921;43.214;27.936;2023-07-29T03:53:03;7.47;;;3.10;;
9763;SDS011;4921;43.214;27.936;2023-07-29T03:55:31;5.70;;;3.30;;
9763;SDS011;4921;43.214;27.936;2023-07-29T03:58:00;5.87;;;3.37;;
9763;SDS011;4921;43.214;27.936;2023-07-29T04:00:27;9.33;;;2.97;;
9763;SDS011;4921;43.214;27.936;2023-07-29T04:02:54;4.53;;;2.77;;
9763;SDS011;4921;43.214;27.936;2023-07-29T04:05:21;3.47;;;2.77;;
9763;SDS011;4921;43.214;27.936;2023-07-29T04:07:48;6.60;;;2.87;;
9763;SDS011;4921;43.214;27.936;2023-07-29T04:10:15;7.87;;;2.80;;
9763;SDS011;4921;43.214;27.936;2023-07-29T04:12:43;5.73;;;3.13;;
9763;SDS011;4921;43.214;27.936;2023-07-29T04:15:11;7.10;;;2.87;;
9763;SDS011;4921;43.214;27.936;2023-07-29T04:17:38;7.07;;;2.77;;
9763;SDS011;4921;43.214;27.936;2023-07-29T04:20:06;8.23;;;3.30;;
9763;SDS011;4921;43.214;27.936;2023-07-29T04:22:33;4.63;;;2.70;;
9763;SDS011;4921;43.214;27.936;2023-07-29T04:25:00;3.87;;;2.90;;
9763;SDS011;4921;43.214;27.936;2023-07-29T04:27:29;7.80;;;3.23;;
9763;SDS011;4921;43.214;27.936;2023-07-29T04:29:56;5.23;;;2.90;;
9763;SDS011;4921;43.214;27.936;2023-07-29T04:32:25;5.87;;;2.67;;
9763;SDS011;4921;43.214;27.936;2023-07-29T04:34:52;5.40;;;2.60;;
9763;SDS011;4921;43.214;27.936;2023-07-29T04:37:19;7.43;;;2.83;;
9763;SDS011;4921;43.214;27.936;2023-07-29T04:39:46;4.93;;;2.50;;
9763;SDS011;4921;43.214;27.936;2023-07-29T04:42:13;5.73;;;2.40;;
9763;SDS011;4921;43.214;27.936;2023-07-29T04:44:40;2.50;;;2.30;;
9763;SDS011;4921;43.214;27.936;2023-07-29T04:47:08;5.37;;;2.20;;
9763;SDS011;4921;43.214;27.936;2023-07-29T04:49:38;3.10;;;2.40;;
9763;SDS011;4921;43.214;27.936;2023-07-29T04:52:05;4.27;;;2.90;;
9763;SDS011;4921;43.214;27.936;2023-07-29T04:54:33;3.90;;;2.37;;
9763;SDS011;4921;43.214;27.936;2023-07-29T04:56:59;8.53;;;3.57;;
9763;SDS011;4921;43.214;27.936;2023-07-29T04:59:26;9.30;;;4.50;;
9763;SDS011;4921;43.214;27.936;2023-07-29T05:01:54;8.00;;;2.97;;
9763;SDS011;4921;43.214;27.936;2023-07-29T05:04:21;7.33;;;3.43;;
9763;SDS011;4921;43.214;27.936;2023-07-29T05:06:49;10.90;;;5.47;;
9763;SDS011;4921;43.214;27.936;2023-07-29T05:09:17;8.57;;;4.53;;
9763;SDS011;4921;43.214;27.936;2023-07-29T05:11:45;7.67;;;5.60;;
9763;SDS011;4921;43.214;27.936;2023-07-29T05:14:13;6.17;;;4.00;;
9763;SDS011;4921;43.214;27.936;2023-07-29T05:16:41;13.23;;;4.97;;
9763;SDS011;4921;43.214;27.936;2023-07-29T05:19:07;7.07;;;5.20;;
9763;SDS011;4921;43.214;27.936;2023-07-29T05:21:34;6.87;;;5.70;;
9763;SDS011;4921;43.214;27.936;2023-07-29T05:24:03;8.43;;;4.80;;
9763;SDS011;4921;43.214;27.936;2023-07-29T05:26:30;6.00;;;4.73;;
9763;SDS011;4921;43.214;27.936;2023-07-29T05:28:57;6.87;;;4.97;;
9763;SDS011;4921;43.214;27.936;2023-07-29T05:31:24;10.97;;;5.53;;
9763;SDS011;4921;43.214;27.936;2023-07-29T05:33:51;5.93;;;5.30;;
9763;SDS011;4921;43.214;27.936;2023-07-29T05:36:18;10.50;;;7.10;;
9763;SDS011;4921;43.214;27.936;2023-07-29T05:38:45;11.37;;;6.70;;
9763;SDS011;4921;43.214;27.936;2023-07-29T05:41:13;18.07;;;12.30;;
9763;SDS011;4921;43.214;27.936;2023-07-29T05:43:40;9.20;;;6.37;;
9763;SDS011;4921;43.214;27.936;2023-07-29T05:46:10;10.50;;;6.03;;
9763;SDS011;4921;43.214;27.936;2023-07-29T05:48:37;8.93;;;5.63;;
9763;SDS011;4921;43.214;27.936;2023-07-29T05:51:04;9.47;;;6.37;;
9763;SDS011;4921;43.214;27.936;2023-07-29T05:53:31;6.97;;;5.00;;
9763;SDS011;4921;43.214;27.936;2023-07-29T05:55:58;8.07;;;5.57;;
9763;SDS011;4921;43.214;27.936;2023-07-29T05:58:27;12.27;;;5.93;;
9763;SDS011;4921;43.214;27.936;2023-07-29T06:00:56;6.90;;;5.23;;
9763;SDS011;4921;43.214;27.936;2023-07-29T06:03:23;8.03;;;5.17;;
9763;SDS011;4921;43.214;27.936;2023-07-29T06:05:50;7.80;;;5.33;;
9763;SDS011;4921;43.214;27.936;2023-07-29T06:08:17;8.37;;;6.20;;
9763;SDS011;4921;43.214;27.936;2023-07-29T06:10:44;7.23;;;4.73;;
9763;SDS011;4921;43.214;27.936;2023-07-29T06:13:11;9.00;;;4.50;;
9763;SDS011;4921;43.214;27.936;2023-07-29T06:15:39;7.57;;;4.80;;
9763;SDS011;4921;43.214;27.936;2023-07-29T06:18:06;8.30;;;4.50;;
9763;SDS011;4921;43.214;27.936;2023-07-29T06:20:33;11.30;;;5.73;;
9763;SDS011;4921;43.214;27.936;2023-07-29T06:23:00;11.97;;;5.40;;
9763;SDS011;4921;43.214;27.936;2023-07-29T06:25:27;8.70;;;4.60;;
9763;SDS011;4921;43.214;27.936;2023-07-29T06:27:54;8.07;;;5.03;;
9763;SDS011;4921;43.214;27.936;2023-07-29T06:30:21;12.27;;;6.90;;
9763;SDS011;4921;43.214;27.936;2023-07-29T06:32:49;9.83;;;5.70;;
9763;SDS011;4921;43.214;27.936;2023-07-29T06:35:16;9.30;;;5.30;;
9763;SDS011;4921;43.214;27.936;2023-07-29T06:37:43;8.93;;;4.90;;
9763;SDS011;4921;43.214;27.936;2023-07-29T06:40:10;9.43;;;5.27;;
9763;SDS011;4921;43.214;27.936;2023-07-29T06:42:37;5.90;;;5.13;;
9763;SDS011;4921;43.214;27.936;2023-07-29T06:45:05;6.07;;;5.57;;
9763;SDS011;4921;43.214;27.936;2023-07-29T06:47:32;13.17;;;5.33;;
9763;SDS011;4921;43.214;27.936;2023-07-29T06:50:01;9.83;;;4.97;;
9763;SDS011;4921;43.214;27.936;2023-07-29T06:52:28;8.67;;;5.20;;
9763;SDS011;4921;43.214;27.936;2023-07-29T06:54:55;11.30;;;5.10;;
9763;SDS011;4921;43.214;27.936;2023-07-29T06:57:22;4.97;;;4.50;;
9763;SDS011;4921;43.214;27.936;2023-07-29T06:59:49;5.20;;;4.30;;
9763;SDS011;4921;43.214;27.936;2023-07-29T07:02:16;4.20;;;3.80;;
9763;SDS011;4921;43.214;27.936;2023-07-29T07:04:44;6.40;;;4.47;;
9763;SDS011;4921;43.214;27.936;2023-07-29T07:07:12;7.60;;;5.00;;
9763;SDS011;4921;43.214;27.936;2023-07-29T07:09:39;11.20;;;5.30;;
9763;SDS011;4921;43.214;27.936;2023-07-29T07:12:06;7.40;;;4.60;;
9763;SDS011;4921;43.214;27.936;2023-07-29T07:14:34;6.10;;;4.17;;
9763;SDS011;4921;43.214;27.936;2023-07-29T07:17:00;11.13;;;4.00;;
9763;SDS011;4921;43.214;27.936;2023-07-29T07:19:28;7.70;;;4.00;;
9763;SDS011;4921;43.214;27.936;2023-07-29T07:21:55;5.90;;;5.10;;
9763;SDS011;4921;43.214;27.936;2023-07-29T07:24:23;7.93;;;3.90;;
9763;SDS011;4921;43.214;27.936;2023-07-29T07:26:50;5.93;;;3.60;;
9763;SDS011;4921;43.214;27.936;2023-07-29T07:29:17;5.60;;;3.30;;
9763;SDS011;4921;43.214;27.936;2023-07-29T07:31:49;5.83;;;3.40;;
9763;SDS011;4921;43.214;27.936;2023-07-29T07:34:17;5.40;;;4.20;;
9763;SDS011;4921;43.214;27.936;2023-07-29T07:36:45;6.20;;;3.33;;
9763;SDS011;4921;43.214;27.936;2023-07-29T07:39:11;7.30;;;3.33;;
9763;SDS011;4921;43.214;27.936;2023-07-29T07:41:40;5.20;;;3.00;;
9763;SDS011;4921;43.214;27.936;2023-07-29T07:44:07;4.30;;;3.63;;
9763;SDS011;4921;43.214;27.936;2023-07-29T07:46:34;8.17;;;3.10;;
9763;SDS011;4921;43.214;27.936;2023-07-29T07:49:01;3.87;;;3.27;;
9763;SDS011;4921;43.214;27.936;2023-07-29T07:51:28;5.33;;;3.67;;
9763;SDS011;4921;43.214;27.936;2023-07-29T07:53:55;5.53;;;3.73;;
9763;SDS011;4921;43.214;27.936;2023-07-29T07:56:22;7.90;;;4.60;;
9763;SDS011;4921;43.214;27.936;2023-07-29T07:58:51;5.23;;;3.47;;
9763;SDS011;4921;43.214;27.936;2023-07-29T08:01:35;4.90;;;4.40;;
9763;SDS011;4921;43.214;27.936;2023-07-29T08:04:02;6.63;;;4.97;;
9763;SDS011;4921;43.214;27.936;2023-07-29T08:06:30;8.37;;;5.33;;
9763;SDS011;4921;43.214;27.936;2023-07-29T08:08:57;7.43;;;4.53;;
9763;SDS011;4921;43.214;27.936;2023-07-29T08:11:24;3.90;;;3.60;;
9763;SDS011;4921;43.214;27.936;2023-07-29T08:13:53;5.27;;;3.60;;
9763;SDS011;4921;43.214;27.936;2023-07-29T08:16:20;5.30;;;2.77;;
9763;SDS011;4921;43.214;27.936;2023-07-29T08:18:47;4.43;;;3.10;;
9763;SDS011;4921;43.214;27.936;2023-07-29T08:21:13;3.50;;;2.57;;
9763;SDS011;4921;43.214;27.936;2023-07-29T08:23:40;5.23;;;2.50;;
9763;SDS011;4921;43.214;27.936;2023-07-29T08:26:07;5.50;;;2.57;;
9763;SDS011;4921;43.214;27.936;2023-07-29T08:28:35;3.70;;;2.80;;
9763;SDS011;4921;43.214;27.936;2023-07-29T08:31:05;2.93;;;2.70;;
9763;SDS011;4921;43.214;27.936;2023-07-29T08:33:32;3.40;;;2.80;;
9763;SDS011;4921;43.214;27.936;2023-07-29T08:36:00;3.00;;;2.77;;
9763;SDS011;4921;43.214;27.936;2023-07-29T08:38:27;4.83;;;2.83;;
9763;SDS011;4921;43.214;27.936;2023-07-29T08:40:57;4.03;;;2.97;;
9763;SDS011;4921;43.214;27.936;2023-07-29T08:43:31;5.10;;;3.10;;
9763;SDS011;4921;43.214;27.936;2023-07-29T08:45:59;3.60;;;2.73;;
9763;SDS011;4921;43.214;27.936;2023-07-29T08:48:32;4.63;;;2.83;;
9763;SDS011;4921;43.214;27.936;2023-07-29T08:51:04;4.47;;;4.10;;
9763;SDS011;4921;43.214;27.936;2023-07-29T08:53:34;3.10;;;2.90;;
9763;SDS011;4921;43.214;27.936;2023-07-29T08:56:01;3.20;;;2.90;;
9763;SDS011;4921;43.214;27.936;2023-07-29T08:58:28;3.33;;;2.53;;
9763;SDS011;4921;43.214;27.936;2023-07-29T09:00:55;3.27;;;2.97;;
9763;SDS011;4921;43.214;27.936;2023-07-29T09:03:22;3.87;;;2.90;;
9763;SDS011;4921;43.214;27.936;2023-07-29T09:05:53;3.13;;;2.93;;
9763;SDS011;4921;43.214;27.936;2023-07-29T09:08:23;2.40;;;2.30;;
9763;SDS011;4921;43.214;27.936;2023-07-29T09:10:51;4.47;;;2.87;;
9763;SDS011;4921;43.214;27.936;2023-07-29T09:13:17;4.30;;;2.57;;
9763;SDS011;4921;43.214;27.936;2023-07-29T09:15:45;5.03;;;2.60;;
9763;SDS011;4921;43.214;27.936;2023-07-29T09:18:14;4.20;;;2.87;;
9763;SDS011;4921;43.214;27.936;2023-07-29T09:20:42;4.53;;;3.13;;
9763;SDS011;4921;43.214;27.936;2023-07-29T09:23:11;3.33;;;3.07;;
9763;SDS011;4921;43.214;27.936;2023-07-29T09:25:38;3.83;;;2.43;;
9763;SDS011;4921;43.214;27.936;2023-07-29T09:28:09;2.53;;;2.33;;
9763;SDS011;4921;43.214;27.936;2023-07-29T09:30:37;5.63;;;2.00;;
9763;SDS011;4921;43.214;27.936;2023-07-29T09:33:07;3.27;;;2.20;;
9763;SDS011;4921;43.214;27.936;2023-07-29T09:35:36;2.17;;;2.00;;
9763;SDS011;4921;43.214;27.936;2023-07-29T09:38:04;5.23;;;2.50;;
9763;SDS011;4921;43.214;27.936;2023-07-29T09:40:36;4.23;;;2.40;;
9763;SDS011;4921;43.214;27.936;2023-07-29T09:43:05;2.90;;;2.17;;
9763;SDS011;4921;43.214;27.936;2023-07-29T09:45:35;2.40;;;2.20;;
9763;SDS011;4921;43.214;27.936;2023-07-29T09:48:04;2.93;;;2.63;;
9763;SDS011;4921;43.214;27.936;2023-07-29T09:50:34;2.10;;;1.90;;
9763;SDS011;4921;43.214;27.936;2023-07-29T09:53:01;1.73;;;1.63;;
9763;SDS011;4921;43.214;27.936;2023-07-29T09:55:32;2.83;;;1.90;;
9763;SDS011;4921;43.214;27.936;2023-07-29T09:58:02;1.80;;;1.70;;
9763;SDS011;4921;43.214;27.936;2023-07-29T10:00:32;2.30;;;1.80;;
9763;SDS011;4921;43.214;27.936;2023-07-29T10:02:59;1.90;;;1.80;;
9763;SDS011;4921;43.214;27.936;2023-07-29T10:05:27;2.20;;;2.10;;
9763;SDS011;4921;43.214;27.936;2023-07-29T10:07:54;2.13;;;2.00;;
9763;SDS011;4921;43.214;27.936;2023-07-29T10:10:22;3.53;;;1.90;;
9763;SDS011;4921;43.214;27.936;2023-07-29T10:12:50;2.00;;;1.90;;
9763;SDS011;4921;43.214;27.936;2023-07-29T10:15:18;2.47;;;2.03;;
9763;SDS011;4921;43.214;27.936;2023-07-29T10:17:45;1.87;;;1.73;;
9763;SDS011;4921;43.214;27.936;2023-07-29T10:20:12;1.90;;;1.80;;
9763;SDS011;4921;43.214;27.936;2023-07-29T10:22:40;3.27;;;2.00;;
9763;SDS011;4921;43.214;27.936;2023-07-29T10:25:08;1.77;;;1.70;;
9763;SDS011;4921;43.214;27.936;2023-07-29T10:27:42;2.63;;;1.90;;
9763;SDS011;4921;43.214;27.936;2023-07-29T10:30:10;5.00;;;4.60;;
9763;SDS011;4921;43.214;27.936;2023-07-29T10:32:40;2.57;;;2.33;;
9763;SDS011;4921;43.214;27.936;2023-07-29T10:35:09;3.97;;;2.10;;
9763;SDS011;4921;43.214;27.936;2023-07-29T10:37:37;2.10;;;1.90;;
9763;SDS011;4921;43.214;27.936;2023-07-29T10:40:06;2.10;;;2.00;;
9763;SDS011;4921;43.214;27.936;2023-07-29T10:42:34;2.20;;;2.10;;
9763;SDS011;4921;43.214;27.936;2023-07-29T10:45:16;2.17;;;2.07;;
9763;SDS011;4921;43.214;27.936;2023-07-29T10:47:46;2.53;;;2.27;;
9763;SDS011;4921;43.214;27.936;2023-07-29T10:50:17;3.27;;;2.30;;
9763;SDS011;4921;43.214;27.936;2023-07-29T10:52:48;5.10;;;2.50;;
9763;SDS011;4921;43.214;27.936;2023-07-29T10:55:27;2.37;;;2.23;;
9763;SDS011;4921;43.214;27.936;2023-07-29T10:58:08;2.30;;;2.20;;
9763;SDS011;4921;43.214;27.936;2023-07-29T11:00:38;2.17;;;1.93;;
9763;SDS011;4921;43.214;27.936;2023-07-29T11:03:07;2.57;;;1.93;;
9763;SDS011;4921;43.214;27.936;2023-07-29T11:05:47;2.37;;;2.20;;
9763;SDS011;4921;43.214;27.936;2023-07-29T11:08:19;2.30;;;2.20;;
9763;SDS011;4921;43.214;27.936;2023-07-29T11:11:06;4.33;;;2.30;;
9763;SDS011;4921;43.214;27.936;2023-07-29T11:13:34;4.53;;;2.30;;
9763;SDS011;4921;43.214;27.936;2023-07-29T11:16:02;4.00;;;2.47;;
9763;SDS011;4921;43.214;27.936;2023-07-29T11:18:32;3.83;;;2.47;;
9763;SDS011;4921;43.214;27.936;2023-07-29T11:21:00;3.37;;;3.07;;
9763;SDS011;4921;43.214;27.936;2023-07-29T11:23:29;2.37;;;2.17;;
9763;SDS011;4921;43.214;27.936;2023-07-29T11:25:57;2.90;;;2.63;;
9763;SDS011;4921;43.214;27.936;2023-07-29T11:28:24;2.57;;;2.37;;
9763;SDS011;4921;43.214;27.936;2023-07-29T11:30:52;2.87;;;2.20;;
9763;SDS011;4921;43.214;27.936;2023-07-29T11:33:20;2.40;;;2.20;;
9763;SDS011;4921;43.214;27.936;2023-07-29T11:35:50;2.83;;;2.63;;
9763;SDS011;4921;43.214;27.936;2023-07-29T11:38:17;2.90;;;2.60;;
9763;SDS011;4921;43.214;27.936;2023-07-29T11:40:53;3.37;;;2.53;;
9763;SDS011;4921;43.214;27.936;2023-07-29T11:43:21;4.27;;;2.87;;
9763;SDS011;4921;43.214;27.936;2023-07-29T11:45:48;2.60;;;2.40;;
9763;SDS011;4921;43.214;27.936;2023-07-29T11:48:15;2.70;;;2.50;;
9763;SDS011;4921;43.214;27.936;2023-07-29T11:50:42;5.17;;;2.47;;
9763;SDS011;4921;43.214;27.936;2023-07-29T11:53:13;4.13;;;2.53;;
9763;SDS011;4921;43.214;27.936;2023-07-29T11:55:40;2.30;;;2.20;;
9763;SDS011;4921;43.214;27.936;2023-07-29T11:58:07;2.80;;;2.60;;
9763;SDS011;4921;43.214;27.936;2023-07-29T12:00:34;3.80;;;2.70;;
9763;SDS011;4921;43.214;27.936;2023-07-29T12:03:02;4.03;;;2.30;;
9763;SDS011;4921;43.214;27.936;2023-07-29T12:05:29;3.50;;;2.53;;
9763;SDS011;4921;43.214;27.936;2023-07-29T12:07:57;3.77;;;2.37;;
9763;SDS011;4921;43.214;27.936;2023-07-29T12:10:25;2.70;;;2.17;;
9763;SDS011;4921;43.214;27.936;2023-07-29T12:12:52;3.30;;;2.10;;
9763;SDS011;4921;43.214;27.936;2023-07-29T12:15:23;2.57;;;2.37;;
9763;SDS011;4921;43.214;27.936;2023-07-29T12:17:52;3.97;;;2.30;;
9763;SDS011;4921;43.214;27.936;2023-07-29T12:20:22;2.70;;;2.47;;
9763;SDS011;4921;43.214;27.936;2023-07-29T12:22:53;6.13;;;2.40;;
9763;SDS011;4921;43.214;27.936;2023-07-29T12:25:21;2.90;;;2.50;;
9763;SDS011;4921;43.214;27.936;2023-07-29T12:27:49;2.70;;;2.50;;
9763;SDS011;4921;43.214;27.936;2023-07-29T12:30:19;2.60;;;2.40;;
9763;SDS011;4921;43.214;27.936;2023-07-29T12:32:47;4.50;;;2.60;;
9763;SDS011;4921;43.214;27.936;2023-07-29T12:35:14;2.93;;;2.30;;
9763;SDS011;4921;43.214;27.936;2023-07-29T12:37:41;3.97;;;2.60;;
9763;SDS011;4921;43.214;27.936;2023-07-29T12:40:20;2.70;;;2.30;;
9763;SDS011;4921;43.214;27.936;2023-07-29T12:42:50;3.73;;;2.23;;
9763;SDS011;4921;43.214;27.936;2023-07-29T12:45:17;4.00;;;2.63;;
9763;SDS011;4921;43.214;27.936;2023-07-29T12:47:45;3.90;;;3.60;;
9763;SDS011;4921;43.214;27.936;2023-07-29T12:50:11;3.83;;;2.70;;
9763;SDS011;4921;43.214;27.936;2023-07-29T12:52:38;4.53;;;2.63;;
9763;SDS011;4921;43.214;27.936;2023-07-29T12:55:06;2.60;;;2.40;;
9763;SDS011;4921;43.214;27.936;2023-07-29T12:57:52;3.57;;;2.30;;
9763;SDS011;4921;43.214;27.936;2023-07-29T13:00:19;3.87;;;2.30;;
9763;SDS011;4921;43.214;27.936;2023-07-29T13:02:46;3.77;;;2.13;;
9763;SDS011;4921;43.214;27.936;2023-07-29T13:05:13;3.47;;;1.90;;
9763;SDS011;4921;43.214;27.936;2023-07-29T13:07:40;3.17;;;2.90;;
9763;SDS011;4921;43.214;27.936;2023-07-29T13:10:08;3.00;;;2.40;;
9763;SDS011;4921;43.214;27.936;2023-07-29T13:12:35;4.93;;;2.50;;
9763;SDS011;4921;43.214;27.936;2023-07-29T13:15:04;3.23;;;2.80;;
9763;SDS011;4921;43.214;27.936;2023-07-29T13:17:32;4.80;;;2.67;;
9763;SDS011;4921;43.214;27.936;2023-07-29T13:19:59;3.83;;;2.30;;
9763;SDS011;4921;43.214;27.936;2023-07-29T13:22:26;2.87;;;2.23;;
9763;SDS011;4921;43.214;27.936;2023-07-29T13:24:53;2.50;;;2.30;;
9763;SDS011;4921;43.214;27.936;2023-07-29T13:27:20;2.60;;;2.40;;
9763;SDS011;4921;43.214;27.936;2023-07-29T13:29:47;3.67;;;2.20;;
9763;SDS011;4921;43.214;27.936;2023-07-29T13:32:15;3.07;;;2.10;;
9763;SDS011;4921;43.214;27.936;2023-07-29T13:34:42;2.70;;;2.23;;
9763;SDS011;4921;43.214;27.936;2023-07-29T13:37:09;5.07;;;2.00;;
9763;SDS011;4921;43.214;27.936;2023-07-29T13:39:36;3.93;;;2.80;;
9763;SDS011;4921;43.214;27.936;2023-07-29T13:42:03;4.33;;;2.23;;
9763;SDS011;4921;43.214;27.936;2023-07-29T13:44:31;2.43;;;2.10;;
9763;SDS011;4921;43.214;27.936;2023-07-29T13:46:58;3.90;;;2.30;;
9763;SDS011;4921;43.214;27.936;2023-07-29T13:49:26;2.40;;;1.90;;
9763;SDS011;4921;43.214;27.936;2023-07-29T13:51:53;2.50;;;1.83;;
9763;SDS011;4921;43.214;27.936;2023-07-29T13:54:20;2.87;;;2.03;;
9763;SDS011;4921;43.214;27.936;2023-07-29T13:56:47;3.27;;;2.30;;
9763;SDS011;4921;43.214;27.936;2023-07-29T13:59:14;3.53;;;1.83;;
9763;SDS011;4921;43.214;27.936;2023-07-29T14:01:41;2.40;;;2.00;;
9763;SDS011;4921;43.214;27.936;2023-07-29T14:04:08;2.93;;;1.97;;
9763;SDS011;4921;43.214;27.936;2023-07-29T14:06:36;4.43;;;1.97;;
9763;SDS011;4921;43.214;27.936;2023-07-29T14:09:03;2.60;;;1.90;;
9763;SDS011;4921;43.214;27.936;2023-07-29T14:11:30;3.50;;;1.73;;
9763;SDS011;4921;43.214;27.936;2023-07-29T14:13:57;3.17;;;1.90;;
9763;SDS011;4921;43.214;27.936;2023-07-29T14:16:24;2.03;;;1.93;;
9763;SDS011;4921;43.214;27.936;2023-07-29T14:18:51;2.43;;;1.87;;
9763;SDS011;4921;43.214;27.936;2023-07-29T14:21:18;5.93;;;1.87;;
9763;SDS011;4921;43.214;27.936;2023-07-29T14:23:46;2.77;;;2.03;;
9763;SDS011;4921;43.214;27.936;2023-07-29T14:26:13;3.67;;;2.00;;
9763;SDS011;4921;43.214;27.936;2023-07-29T14:28:40;2.00;;;1.77;;
9763;SDS011;4921;43.214;27.936;2023-07-29T14:31:07;2.43;;;1.90;;
9763;SDS011;4921;43.214;27.936;2023-07-29T14:33:34;2.60;;;1.87;;
9763;SDS011;4921;43.214;27.936;2023-07-29T14:36:01;3.47;;;1.90;;
9763;SDS011;4921;43.214;27.936;2023-07-29T14:38:28;2.83;;;1.90;;
9763;SDS011;4921;43.214;27.936;2023-07-29T14:40:57;3.03;;;2.03;;
9763;SDS011;4921;43.214;27.936;2023-07-29T14:43:24;2.50;;;2.03;;
9763;SDS011;4921;43.214;27.936;2023-07-29T14:45:51;3.57;;;2.20;;
9763;SDS011;4921;43.214;27.936;2023-07-29T14:48:18;2.10;;;1.97;;
9763;SDS011;4921;43.214;27.936;2023-07-29T14:50:45;4.13;;;2.13;;
9763;SDS011;4921;43.214;27.936;2023-07-29T14:53:12;2.93;;;1.80;;
9763;SDS011;4921;43.214;27.936;2023-07-29T14:55:39;3.47;;;2.30;;
9763;SDS011;4921;43.214;27.936;2023-07-29T14:58:08;3.30;;;2.47;;
9763;SDS011;4921;43.214;27.936;2023-07-29T15:00:35;2.80;;;1.63;;
9763;SDS011;4921;43.214;27.936;2023-07-29T15:03:02;2.60;;;2.30;;
9763;SDS011;4921;43.214;27.936;2023-07-29T15:05:29;3.23;;;1.90;;